ホーチミン の空港の天気 - METARとTAF

タンソンニャット国際空港 (ホーチミン) ( VVTS / SGN ) - ベトナム ホーチミン市
飛行場実況気象(Metar)
観測時間06/26 18:30 ICT (06/26 11:30 UTC)
風向・風速南西 5m/s
視程8000m
天気現象
全天の4割程度の雲 雲底高度 460m
少しの雲 雲底高度 520m
気温28℃
湿度94%
気圧1006hPa
METARVVTS 261130Z 23009KT 8000 SCT015 FEW017CB 28/27 Q1006 NOSIG CB/W
過去の天気等 Google飛行場航空写真 Wunderground天気予報

過去48時間のMETAR

飛行場予報(TAF)
データがありません